Pagrindinis puslapis
METAR-TAF:

METAR-TAF

Oro uostai :

Kuresarė, Estija

platuma: 58-13-48N, ilguma: 022-30-34E, Aukštis: 4 m

Dabartinis oras

Ataskaita buvo paskelbta 41 minutes, ne 10:50 UTC
Vėjas 9 kt iš Pietų/Pietvakarių
Temperatūra 11°C
Drėgmė 87%
Slėgis 1009 hPa
Matomumas 10 km arba daugiau
Mažai debesys ne aukštis 800 ft
Su prošvaistėmis ne aukštis 1700 ft
Apsiniaukę ne aukštis 2000 ft

METAR: EEKE 291050Z 20009KT 9999 FEW008 BKN017 OVC020 11/09 Q1009

Laikas: 13:31 (11:31 UTC)

Prognozė

Ataskaita buvo paskelbta 5 valandos ir 31 minutes, ne 06:00 UTC
Prognozė galioja nuo 29 metu 07 UTC su 29 metu 13 UTC
Vėjas 12 kt iš Pietų
Matomumas 10 km arba daugiau
Su prošvaistėmis ne aukštis 1300 ft
Laikinai
nuo 29 metu 07 UTC su 29 metu 10 UTC
Su prošvaistėmis ne aukštis 500 ft

TAF: EEKE 290600Z 2907/2913 19012KT 9999 BKN013 TEMPO 2907/2910 BKN005

Orai ataskaitas ir orų prognozės (METAR, TAF).

turimą stotys yra geltonos ir raudonos taškus žemėlapyje.

Perkelti pele per norėdami pamatyti stoties vardą.

Tada spustelėkite, norėdami matyti oro stebėjimo ir prognozės.

Norėdami pakeisti žemėlapį: spustelėkite ant žalios mygtukų su juodo kryžiaus žemyn,; žalią mygtuką su brūkšneliu, jei norite nutolinti; arba žalių rodyklių gretimoms žemėlapius.


METAR-TAF: